VCV350 SVMG-SVVA
Flight info
| Callsign | VCV350 |
|---|---|
| Flight time | 0h 49m |
| Altitude | 36000 |
| Route | ESPEP SARNI DCT MASPU UW14 EDPAL DCT ATAMU |
| Aircraft | E190/M-SDE3GILORVW/S |
Departure
| Time | 2026-04-28 16:17 |
|---|---|
| Airport | Del Caribe Santiago Mariño International Airport (SVMG) |
Arrival
| Time | 2026-04-28 17:06 |
|---|---|
| Airport | Arturo Michelena International Airport (SVVA) |
| Time | Latitude | Longitude | Altitude | Speed | Heading |
|---|---|---|---|---|---|
| 2026-04-28 15:55 | 10.91575 | -63.96903 | 59 ft | 0 kts | 348° |
| 2026-04-28 16:08 | 10.91567 | -63.96901 | 59 ft | 4 kts | 349° |
| 2026-04-28 16:09 | 10.91515 | -63.96892 | 63 ft | 4 kts | 326° |
| 2026-04-28 16:09 | 10.91506 | -63.96884 | 56 ft | 0 kts | 258° |
| 2026-04-28 16:11 | 10.91501 | -63.96909 | 53 ft | 5 kts | 258° |
| 2026-04-28 16:11 | 10.91475 | -63.96992 | 58 ft | 9 kts | 230° |
| 2026-04-28 16:12 | 10.91357 | -63.97060 | 56 ft | 10 kts | 251° |
| 2026-04-28 16:12 | 10.91340 | -63.97134 | 61 ft | 12 kts | 259° |
| 2026-04-28 16:13 | 10.91302 | -63.97318 | 58 ft | 15 kts | 258° |
| 2026-04-28 16:13 | 10.91287 | -63.97391 | 58 ft | 17 kts | 258° |
| 2026-04-28 16:13 | 10.91235 | -63.97646 | 53 ft | 20 kts | 258° |
| 2026-04-28 16:14 | 10.91174 | -63.97945 | 53 ft | 23 kts | 258° |
| 2026-04-28 16:14 | 10.91073 | -63.98133 | 60 ft | 12 kts | 168° |
| 2026-04-28 16:15 | 10.91028 | -63.98108 | 68 ft | 4 kts | 137° |
| 2026-04-28 16:15 | 10.90981 | -63.98080 | 72 ft | 10 kts | 163° |
| 2026-04-28 16:15 | 10.90976 | -63.98061 | 74 ft | 2 kts | 76° |
| 2026-04-28 16:16 | 10.91104 | -63.97435 | 65 ft | 110 kts | 78° |
| 2026-04-28 16:16 | 10.91307 | -63.96467 | 82 ft | 166 kts | 77° |
| 2026-04-28 16:17 | 10.91933 | -63.93869 | 1480 ft | 193 kts | 76° |
| 2026-04-28 16:17 | 10.92195 | -63.92454 | 2160 ft | 211 kts | 83° |
| 2026-04-28 16:17 | 10.92100 | -63.90955 | 3042 ft | 216 kts | 109° |
| 2026-04-28 16:17 | 10.91342 | -63.89633 | 4028 ft | 218 kts | 132° |
| 2026-04-28 16:18 | 10.90153 | -63.88683 | 4928 ft | 218 kts | 154° |
| 2026-04-28 16:18 | 10.88695 | -63.88256 | 5742 ft | 220 kts | 175° |
| 2026-04-28 16:18 | 10.87180 | -63.88422 | 6528 ft | 226 kts | 198° |
| 2026-04-28 16:18 | 10.85719 | -63.89214 | 6895 ft | 259 kts | 224° |
| 2026-04-28 16:19 | 10.84653 | -63.90773 | 7561 ft | 274 kts | 246° |
| 2026-04-28 16:19 | 10.84028 | -63.92632 | 8446 ft | 281 kts | 252° |
| 2026-04-28 16:19 | 10.83415 | -63.94501 | 9392 ft | 284 kts | 250° |
| 2026-04-28 16:19 | 10.82743 | -63.96406 | 10295 ft | 292 kts | 250° |
| 2026-04-28 16:20 | 10.82025 | -63.98425 | 10795 ft | 312 kts | 250° |
| 2026-04-28 16:20 | 10.81303 | -64.00559 | 11436 ft | 327 kts | 251° |
| 2026-04-28 16:20 | 10.80811 | -64.02062 | 11865 ft | 337 kts | 251° |
| 2026-04-28 16:20 | 10.80486 | -64.03066 | 12167 ft | 342 kts | 251° |
| 2026-04-28 16:21 | 10.79751 | -64.05392 | 13019 ft | 348 kts | 252° |
| 2026-04-28 16:21 | 10.79042 | -64.07768 | 13974 ft | 353 kts | 253° |
| 2026-04-28 16:21 | 10.78354 | -64.10184 | 14958 ft | 358 kts | 254° |
| 2026-04-28 16:21 | 10.77696 | -64.12644 | 15944 ft | 363 kts | 255° |
| 2026-04-28 16:22 | 10.77085 | -64.15152 | 16846 ft | 368 kts | 257° |
| 2026-04-28 16:22 | 10.76689 | -64.17736 | 17671 ft | 373 kts | 264° |
| 2026-04-28 16:22 | 10.76513 | -64.20386 | 18469 ft | 378 kts | 266° |
| 2026-04-28 16:22 | 10.76326 | -64.23068 | 19257 ft | 383 kts | 265° |
| 2026-04-28 16:23 | 10.76138 | -64.25787 | 20037 ft | 388 kts | 265° |
| 2026-04-28 16:23 | 10.75944 | -64.28539 | 20795 ft | 393 kts | 265° |
| 2026-04-28 16:23 | 10.75750 | -64.31328 | 21514 ft | 397 kts | 265° |
| 2026-04-28 16:23 | 10.75551 | -64.34144 | 22175 ft | 402 kts | 265° |
| 2026-04-28 16:24 | 10.75352 | -64.36992 | 22790 ft | 406 kts | 265° |
| 2026-04-28 16:24 | 10.75148 | -64.39866 | 23384 ft | 410 kts | 265° |
| 2026-04-28 16:24 | 10.74944 | -64.42769 | 23960 ft | 413 kts | 265° |
| 2026-04-28 16:24 | 10.74736 | -64.45696 | 24532 ft | 417 kts | 265° |
| 2026-04-28 16:25 | 10.74599 | -64.47649 | 24907 ft | 419 kts | 265° |
| 2026-04-28 16:25 | 10.74317 | -64.51629 | 25629 ft | 424 kts | 265° |
| 2026-04-28 16:25 | 10.74177 | -64.53612 | 25987 ft | 426 kts | 265° |
| 2026-04-28 16:25 | 10.73890 | -64.57660 | 26652 ft | 431 kts | 265° |
| 2026-04-28 16:26 | 10.73657 | -64.60710 | 27119 ft | 434 kts | 263° |
| 2026-04-28 16:26 | 10.72969 | -64.63706 | 27549 ft | 437 kts | 253° |
| 2026-04-28 16:26 | 10.72052 | -64.66662 | 27979 ft | 440 kts | 252° |
| 2026-04-28 16:26 | 10.71147 | -64.69642 | 28386 ft | 443 kts | 252° |
| 2026-04-28 16:27 | 10.70236 | -64.72640 | 28764 ft | 445 kts | 252° |
| 2026-04-28 16:27 | 10.69322 | -64.75657 | 29173 ft | 447 kts | 252° |
| 2026-04-28 16:27 | 10.67502 | -64.81678 | 30162 ft | 444 kts | 252° |
| 2026-04-28 16:28 | 10.66598 | -64.84674 | 30648 ft | 443 kts | 253° |
| 2026-04-28 16:28 | 10.65695 | -64.87660 | 31122 ft | 442 kts | 252° |
| 2026-04-28 16:28 | 10.64808 | -64.90603 | 31584 ft | 441 kts | 253° |
| 2026-04-28 16:28 | 10.63908 | -64.93580 | 32025 ft | 440 kts | 252° |
| 2026-04-28 16:29 | 10.62113 | -64.99516 | 32867 ft | 439 kts | 252° |
| 2026-04-28 16:29 | 10.60323 | -65.05434 | 33641 ft | 437 kts | 252° |
| 2026-04-28 16:30 | 10.59430 | -65.08385 | 33990 ft | 437 kts | 252° |
| 2026-04-28 16:30 | 10.58538 | -65.11333 | 34342 ft | 436 kts | 252° |
| 2026-04-28 16:30 | 10.57646 | -65.14274 | 34672 ft | 435 kts | 252° |
| 2026-04-28 16:30 | 10.56756 | -65.17212 | 34999 ft | 435 kts | 252° |
| 2026-04-28 16:31 | 10.55866 | -65.20147 | 35312 ft | 434 kts | 252° |
| 2026-04-28 16:31 | 10.54977 | -65.23078 | 35626 ft | 434 kts | 252° |
| 2026-04-28 16:31 | 10.54088 | -65.26004 | 35935 ft | 432 kts | 252° |
| 2026-04-28 16:31 | 10.53209 | -65.28903 | 36071 ft | 429 kts | 252° |
| 2026-04-28 16:32 | 10.52332 | -65.31785 | 36058 ft | 425 kts | 252° |
| 2026-04-28 16:32 | 10.49726 | -65.40341 | 36010 ft | 421 kts | 252° |
| 2026-04-28 16:33 | 10.48287 | -65.45064 | 36009 ft | 421 kts | 252° |
| 2026-04-28 16:33 | 10.46261 | -65.51708 | 36007 ft | 421 kts | 252° |
| 2026-04-28 16:34 | 10.44528 | -65.57390 | 36010 ft | 421 kts | 252° |
| 2026-04-28 16:34 | 10.42793 | -65.63073 | 36007 ft | 421 kts | 252° |
| 2026-04-28 16:35 | 10.41057 | -65.68755 | 36009 ft | 421 kts | 252° |
| 2026-04-28 16:35 | 10.39320 | -65.74435 | 36008 ft | 421 kts | 252° |
| 2026-04-28 16:36 | 10.37582 | -65.80115 | 36008 ft | 421 kts | 252° |
| 2026-04-28 16:36 | 10.35855 | -65.85756 | 36008 ft | 421 kts | 252° |
| 2026-04-28 16:37 | 10.34115 | -65.91435 | 36009 ft | 421 kts | 252° |
| 2026-04-28 16:38 | 10.31504 | -65.99952 | 36024 ft | 421 kts | 252° |
| 2026-04-28 16:38 | 10.29760 | -66.05633 | 35999 ft | 421 kts | 252° |
| 2026-04-28 16:39 | 10.28018 | -66.11307 | 36000 ft | 421 kts | 252° |
| 2026-04-28 16:39 | 10.26274 | -66.16982 | 36003 ft | 421 kts | 252° |
| 2026-04-28 16:40 | 10.24529 | -66.22657 | 36001 ft | 421 kts | 252° |
| 2026-04-28 16:40 | 10.22783 | -66.28329 | 36002 ft | 421 kts | 252° |
| 2026-04-28 16:41 | 10.21036 | -66.34002 | 36003 ft | 421 kts | 252° |
| 2026-04-28 16:41 | 10.19287 | -66.39676 | 36002 ft | 421 kts | 252° |
| 2026-04-28 16:42 | 10.17550 | -66.45311 | 36004 ft | 421 kts | 252° |
| 2026-04-28 16:42 | 10.15789 | -66.51020 | 36001 ft | 421 kts | 252° |
| 2026-04-28 16:43 | 10.14049 | -66.56653 | 36003 ft | 421 kts | 252° |
| 2026-04-28 16:43 | 10.12298 | -66.62323 | 36001 ft | 421 kts | 252° |
| 2026-04-28 16:44 | 10.10545 | -66.67993 | 36003 ft | 421 kts | 252° |
| 2026-04-28 16:44 | 10.08791 | -66.73662 | 36006 ft | 421 kts | 252° |
| 2026-04-28 16:45 | 10.07031 | -66.79345 | 35651 ft | 427 kts | 252° |
| 2026-04-28 16:45 | 10.06145 | -66.82207 | 35445 ft | 423 kts | 252° |
| 2026-04-28 16:45 | 10.05256 | -66.85074 | 34838 ft | 429 kts | 252° |
| 2026-04-28 16:45 | 10.04361 | -66.87961 | 34281 ft | 428 kts | 252° |
| 2026-04-28 16:46 | 10.03466 | -66.90842 | 33685 ft | 428 kts | 252° |
| 2026-04-28 16:46 | 10.02574 | -66.93717 | 33125 ft | 427 kts | 252° |
| 2026-04-28 16:46 | 10.01681 | -66.96593 | 32550 ft | 427 kts | 252° |
| 2026-04-28 16:46 | 10.00790 | -66.99464 | 31985 ft | 427 kts | 252° |
| 2026-04-28 16:47 | 9.99895 | -67.02343 | 31425 ft | 428 kts | 252° |
| 2026-04-28 16:47 | 9.98999 | -67.05229 | 30841 ft | 430 kts | 252° |
| 2026-04-28 16:47 | 9.98101 | -67.08121 | 30279 ft | 431 kts | 252° |
| 2026-04-28 16:47 | 9.97199 | -67.11024 | 29702 ft | 432 kts | 252° |
| 2026-04-28 16:48 | 9.96314 | -67.13938 | 29128 ft | 433 kts | 256° |
| 2026-04-28 16:48 | 9.95946 | -67.16961 | 28569 ft | 433 kts | 270° |
| 2026-04-28 16:48 | 9.96072 | -67.20005 | 27977 ft | 431 kts | 273° |
| 2026-04-28 16:48 | 9.96243 | -67.23025 | 27403 ft | 427 kts | 273° |
| 2026-04-28 16:49 | 9.96405 | -67.26015 | 26838 ft | 422 kts | 273° |
| 2026-04-28 16:49 | 9.96561 | -67.28972 | 26280 ft | 418 kts | 272° |
| 2026-04-28 16:49 | 9.96713 | -67.31901 | 25725 ft | 414 kts | 272° |
| 2026-04-28 16:49 | 9.96862 | -67.34799 | 25181 ft | 410 kts | 272° |
| 2026-04-28 16:50 | 9.97007 | -67.37675 | 24638 ft | 406 kts | 272° |
| 2026-04-28 16:50 | 9.97151 | -67.40527 | 24104 ft | 403 kts | 272° |
| 2026-04-28 16:50 | 9.97292 | -67.43354 | 23568 ft | 400 kts | 272° |
| 2026-04-28 16:50 | 9.97432 | -67.46156 | 23043 ft | 396 kts | 272° |
| 2026-04-28 16:51 | 9.97567 | -67.48937 | 22519 ft | 393 kts | 272° |
| 2026-04-28 16:51 | 9.97702 | -67.51696 | 22000 ft | 390 kts | 272° |
| 2026-04-28 16:51 | 9.97834 | -67.54432 | 21484 ft | 387 kts | 272° |
| 2026-04-28 16:51 | 9.97964 | -67.57148 | 20977 ft | 384 kts | 272° |
| 2026-04-28 16:52 | 9.98093 | -67.59842 | 20469 ft | 381 kts | 272° |
| 2026-04-28 16:52 | 9.98217 | -67.62516 | 19966 ft | 378 kts | 272° |
| 2026-04-28 16:52 | 9.98342 | -67.65134 | 19474 ft | 375 kts | 272° |
| 2026-04-28 16:52 | 9.98463 | -67.67766 | 18972 ft | 372 kts | 272° |
| 2026-04-28 16:53 | 9.98586 | -67.70379 | 18486 ft | 369 kts | 272° |
| 2026-04-28 16:53 | 9.98706 | -67.72972 | 18002 ft | 367 kts | 272° |
| 2026-04-28 16:53 | 9.98832 | -67.75547 | 17518 ft | 364 kts | 273° |
| 2026-04-28 16:53 | 9.98980 | -67.78104 | 17036 ft | 362 kts | 273° |
| 2026-04-28 16:54 | 9.99120 | -67.80642 | 16552 ft | 359 kts | 273° |
| 2026-04-28 16:54 | 9.99263 | -67.83161 | 16079 ft | 357 kts | 273° |
| 2026-04-28 16:54 | 9.99401 | -67.85665 | 15603 ft | 354 kts | 273° |
| 2026-04-28 16:54 | 9.99494 | -67.87345 | 15285 ft | 352 kts | 272° |
| 2026-04-28 16:55 | 9.99651 | -67.90613 | 14679 ft | 347 kts | 272° |
| 2026-04-28 16:55 | 9.99763 | -67.93024 | 14210 ft | 338 kts | 272° |
| 2026-04-28 16:55 | 9.99873 | -67.95374 | 13772 ft | 330 kts | 272° |
| 2026-04-28 16:55 | 9.99981 | -67.97672 | 13335 ft | 323 kts | 272° |
| 2026-04-28 16:56 | 10.00091 | -67.99925 | 12911 ft | 317 kts | 272° |
| 2026-04-28 16:56 | 10.00191 | -68.02133 | 12490 ft | 311 kts | 272° |
| 2026-04-28 16:56 | 10.00292 | -68.04301 | 12098 ft | 305 kts | 272° |
| 2026-04-28 16:56 | 10.00393 | -68.06430 | 11695 ft | 300 kts | 272° |
| 2026-04-28 16:57 | 10.00494 | -68.08528 | 11289 ft | 296 kts | 272° |
| 2026-04-28 16:57 | 10.00590 | -68.10599 | 10904 ft | 292 kts | 272° |
| 2026-04-28 16:57 | 10.00684 | -68.12649 | 10525 ft | 290 kts | 272° |
| 2026-04-28 16:57 | 10.00782 | -68.14682 | 10150 ft | 288 kts | 272° |
| 2026-04-28 16:58 | 10.00877 | -68.16711 | 9755 ft | 287 kts | 272° |
| 2026-04-28 16:58 | 10.00974 | -68.18730 | 9381 ft | 286 kts | 272° |
| 2026-04-28 16:58 | 10.01284 | -68.20709 | 8872 ft | 287 kts | 292° |
| 2026-04-28 16:58 | 10.02460 | -68.22256 | 8506 ft | 272 kts | 324° |
| 2026-04-28 16:59 | 10.04160 | -68.22860 | 8204 ft | 254 kts | 359° |
| 2026-04-28 16:59 | 10.05799 | -68.22394 | 8010 ft | 245 kts | 33° |
| 2026-04-28 16:59 | 10.07075 | -68.21322 | 7739 ft | 233 kts | 42° |
| 2026-04-28 16:59 | 10.08261 | -68.20226 | 7388 ft | 229 kts | 42° |
| 2026-04-28 17:00 | 10.09442 | -68.19172 | 7122 ft | 224 kts | 40° |
| 2026-04-28 17:00 | 10.10618 | -68.18154 | 6799 ft | 221 kts | 40° |
| 2026-04-28 17:00 | 10.11777 | -68.17163 | 6509 ft | 215 kts | 39° |
| 2026-04-28 17:00 | 10.12892 | -68.16222 | 6240 ft | 208 kts | 40° |
| 2026-04-28 17:01 | 10.13991 | -68.15302 | 6025 ft | 203 kts | 39° |
| 2026-04-28 17:01 | 10.15058 | -68.14368 | 5727 ft | 203 kts | 47° |
| 2026-04-28 17:01 | 10.15767 | -68.13156 | 5493 ft | 199 kts | 73° |
| 2026-04-28 17:01 | 10.15903 | -68.11770 | 5190 ft | 197 kts | 92° |
| 2026-04-28 17:02 | 10.15803 | -68.10418 | 4985 ft | 188 kts | 94° |
| 2026-04-28 17:02 | 10.15749 | -68.09535 | 4824 ft | 182 kts | 95° |
| 2026-04-28 17:02 | 10.15629 | -68.07894 | 4463 ft | 170 kts | 93° |
| 2026-04-28 17:02 | 10.15589 | -68.06704 | 4228 ft | 168 kts | 92° |
| 2026-04-28 17:03 | 10.15518 | -68.04739 | 3779 ft | 164 kts | 93° |
| 2026-04-28 17:03 | 10.15466 | -68.03596 | 3484 ft | 159 kts | 94° |
| 2026-04-28 17:03 | 10.15423 | -68.02512 | 3221 ft | 153 kts | 93° |
| 2026-04-28 17:04 | 10.15334 | -68.00479 | 2796 ft | 137 kts | 94° |
| 2026-04-28 17:04 | 10.15285 | -67.99508 | 2579 ft | 136 kts | 94° |
| 2026-04-28 17:05 | 10.15220 | -67.97587 | 2158 ft | 135 kts | 92° |
| 2026-04-28 17:05 | 10.15163 | -67.96634 | 1951 ft | 136 kts | 95° |
| 2026-04-28 17:05 | 10.15113 | -67.95667 | 1749 ft | 138 kts | 92° |
| 2026-04-28 17:06 | 10.15023 | -67.93730 | 1428 ft | 125 kts | 93° |
| 2026-04-28 17:06 | 10.14985 | -67.92989 | 1417 ft | 82 kts | 92° |
| 2026-04-28 17:06 | 10.14957 | -67.92310 | 1410 ft | 18 kts | 79° |
| 2026-04-28 17:07 | 10.15039 | -67.92275 | 1411 ft | 10 kts | 3° |
| 2026-04-28 17:07 | 10.15087 | -67.92273 | 1415 ft | 0 kts | 3° |
| 2026-04-28 17:07 | 10.15091 | -67.92272 | 1413 ft | 1 kts | 3° |
| 2026-04-28 17:07 | 10.15098 | -67.92272 | 1412 ft | 2 kts | 3° |
| 2026-04-28 17:08 | 10.15107 | -67.92272 | 1413 ft | 0 kts | 3° |
| 2026-04-28 17:08 | 10.15120 | -67.92271 | 1415 ft | 4 kts | 3° |
| 2026-04-28 17:09 | 10.15164 | -67.92270 | 1411 ft | 8 kts | 0° |
| 2026-04-28 17:09 | 10.15221 | -67.92286 | 1415 ft | 7 kts | 305° |
| 2026-04-28 17:09 | 10.15266 | -67.92321 | 1415 ft | 9 kts | 341° |
| 2026-04-28 17:09 | 10.15312 | -67.92318 | 1413 ft | 5 kts | 46° |
| 2026-04-28 17:10 | 10.15316 | -67.92286 | 1412 ft | 3 kts | 91° |
| 2026-04-28 17:10 | 10.15315 | -67.92275 | 1412 ft | 2 kts | 92° |
| 2026-04-28 17:10 | 10.15315 | -67.92268 | 1411 ft | 1 kts | 93° |
| 2026-04-28 17:10 | 10.15315 | -67.92267 | 1411 ft | 0 kts | 93° |